Time;durP1;ratioP1;P1;durP2;ratioP2;P2;SDS_P1;SDS_P2;PMS_P1;PMS_P2;Temp;Humidity;BMP_temperature;BMP_pressure;BME280_temperature;BME280_humidity;BME280_pressure;Samples;Min_cycle;Max_cycle;Signal;HPM_P1;HPM_P2
2021/01/26 00:00:51;;;;;;;18.50;11.95;;;;;;;0.27;83.28;100315.22;4997985;28;20035;-73
2021/01/26 00:03:16;;;;;;;16.95;10.77;;;;;;;0.24;83.54;100312.75;4996792;28;20434;-73
2021/01/26 00:05:42;;;;;;;18.60;12.70;;;;;;;0.32;83.15;100316.59;4997529;28;21157;-72
2021/01/26 00:08:07;;;;;;;18.05;12.70;;;;;;;0.29;83.70;100308.97;4997346;28;20110;-73
2021/01/26 00:10:33;;;;;;;16.95;12.45;;;;;;;0.31;83.04;100308.88;4997311;28;20030;-73
2021/01/26 00:12:58;;;;;;;17.85;11.20;;;;;;;0.27;83.55;100310.00;4993919;28;20514;-72
2021/01/26 00:15:24;;;;;;;18.38;11.73;;;;;;;0.27;83.47;100316.03;4985934;28;20555;-72
2021/01/26 00:17:49;;;;;;;13.30;9.18;;;;;;;0.24;83.90;100316.22;4993598;28;20451;-72
2021/01/26 00:20:16;;;;;;;21.52;13.25;;;;;;;0.34;83.41;100311.31;4993628;28;20121;-72
2021/01/26 00:22:42;;;;;;;17.52;11.82;;;;;;;0.36;83.20;100309.47;4988523;28;20045;-72
2021/01/26 00:25:10;;;;;;;19.67;12.70;;;;;;;0.37;83.16;100313.72;4994013;28;20037;-72
2021/01/26 00:27:35;;;;;;;22.00;13.80;;;;;;;0.36;83.37;100314.66;4998078;28;20117;-72
2021/01/26 00:30:04;;;;;;;20.58;13.13;;;;;;;0.38;83.12;100318.84;4992794;28;20113;-74
2021/01/26 00:32:29;;;;;;;19.92;13.30;;;;;;;0.45;82.86;100318.47;5006325;28;20081;-72
2021/01/26 00:34:54;;;;;;;16.50;10.68;;;;;;;0.39;82.98;100324.88;5001589;28;20496;-72
2021/01/26 00:37:20;;;;;;;20.90;13.15;;;;;;;0.50;82.83;100321.63;4994842;28;20082;-72
2021/01/26 00:53:12;;;;;;;;;;;;;;;0.36;82.69;100309.47;4978314;28;20077;-73
2021/01/26 00:55:38;;;;;;;20.70;13.02;;;;;;;0.36;82.22;100309.47;5002702;28;20643;-72
2021/01/26 00:58:03;;;;;;;19.05;11.77;;;;;;;0.36;82.47;100309.47;4999586;28;20495;-73
2021/01/26 01:00:36;;;;;;;19.70;12.57;;;;;;;0.38;82.39;100310.19;4995809;28;20044;-72
2021/01/26 01:03:01;;;;;;;21.45;13.80;;;;;;;0.42;82.30;100314.28;4991932;28;20056;-72
2021/01/26 01:05:27;;;;;;;20.83;13.93;;;;;;;0.38;82.23;100310.19;4994757;28;20453;-72
2021/01/26 01:07:53;;;;;;;19.52;13.20;;;;;;;0.41;82.18;100321.25;4999809;28;20062;-72
2021/01/26 01:10:22;;;;;;;23.27;13.95;;;;;;;0.46;82.12;100320.97;4999438;28;20412;-72
2021/01/26 01:12:47;;;;;;;20.15;13.40;;;;;;;0.45;81.78;100313.25;4991116;28;20038;-72
2021/01/26 01:15:14;;;;;;;24.08;15.23;;;;;;;0.46;82.23;100307.16;4991194;28;20038;-72
2021/01/26 01:17:39;;;;;;;22.70;13.60;;;;;;;0.36;82.59;100317.25;5003061;28;20790;-72
2021/01/26 01:20:06;;;;;;;20.88;13.23;;;;;;;0.34;82.88;100326.91;4996487;28;20549;-72
2021/01/26 01:22:32;;;;;;;20.58;12.13;;;;;;;0.35;82.87;100313.81;4994692;28;20042;-72
2021/01/26 01:24:57;;;;;;;21.92;13.43;;;;;;;0.32;83.03;100307.97;5002188;28;20040;-72
2021/01/26 01:27:22;;;;;;;19.38;12.00;;;;;;;0.31;83.00;100304.53;5005622;28;20450;-72
2021/01/26 01:29:47;;;;;;;22.42;14.35;;;;;;;0.39;82.47;100307.50;4996252;28;20034;-72
2021/01/26 01:32:13;;;;;;;23.35;13.13;;;;;;;0.34;83.07;100308.72;5006422;28;20038;-72
2021/01/26 01:34:38;;;;;;;20.63;12.82;;;;;;;0.30;82.91;100309.81;5004065;28;21310;-72
2021/01/26 01:37:03;;;;;;;21.88;13.40;;;;;;;0.29;82.94;100308.16;5001175;28;20042;-72
2021/01/26 01:39:29;;;;;;;18.90;12.57;;;;;;;0.29;82.86;100311.59;4995379;28;20434;-72
2021/01/26 01:41:54;;;;;;;22.23;13.77;;;;;;;0.31;82.72;100314.94;4997045;28;20038;-72
2021/01/26 01:44:20;;;;;;;19.40;11.40;;;;;;;0.28;83.13;100316.88;4993946;28;20511;-73
2021/01/26 01:46:53;;;;;;;23.13;13.68;;;;;;;0.35;82.74;100306.00;5005866;28;20038;-71
2021/01/26 01:49:24;;;;;;;19.95;12.77;;;;;;;0.37;82.46;100300.72;5003767;28;20399;-72
2021/01/26 01:51:49;;;;;;;20.85;12.60;;;;;;;0.44;81.75;100302.03;4998059;28;20360;-72
2021/01/26 01:54:19;;;;;;;20.00;12.98;;;;;;;0.46;81.44;100297.56;4997256;28;20034;-73
2021/01/26 01:56:58;;;;;;;20.23;12.30;;;;;;;0.43;81.86;100302.97;5001942;28;20394;-72
2021/01/26 01:59:27;;;;;;;18.25;11.05;;;;;;;0.41;81.90;100303.03;4997834;28;20030;-72
2021/01/26 02:01:53;;;;;;;21.00;13.38;;;;;;;0.57;81.18;100305.56;5001929;28;20100;-72
2021/01/26 02:04:21;;;;;;;20.30;13.23;;;;;;;0.55;81.08;100310.03;5002289;28;20399;-72
2021/01/26 02:06:53;;;;;;;21.90;12.98;;;;;;;0.58;81.16;100312.44;4995228;28;20031;-72
2021/01/26 02:09:25;;;;;;;20.98;12.63;;;;;;;0.56;81.01;100305.66;5001672;28;20125;-72
2021/01/26 02:11:50;;;;;;;20.38;12.40;;;;;;;0.49;81.50;100312.16;5004787;28;20045;-72
2021/01/26 02:14:16;;;;;;;23.52;13.15;;;;;;;0.49;81.50;100304.34;5003446;28;20041;-72
2021/01/26 02:17:18;;;;;;;21.58;13.70;;;;;;;0.63;81.04;100309.56;4995382;28;20035;-72
2021/01/26 02:20:24;;;;;;;22.25;13.07;;;;;;;0.60;81.46;100302.78;4994145;28;20034;-72
2021/01/26 02:23:02;;;;;;;25.77;15.40;;;;;;;0.43;82.68;100300.38;4993454;28;20093;-72
2021/01/26 02:26:05;;;;;;;24.88;15.38;;;;;;;0.54;82.37;100310.09;5000835;28;20041;-72
2021/01/26 02:28:51;;;;;;;22.95;14.27;;;;;;;0.40;83.02;100306.56;5002348;28;20209;-72
2021/01/26 02:31:44;;;;;;;26.30;15.43;;;;;;;0.35;83.38;100324.22;4998003;28;20129;-73
2021/01/26 02:34:28;;;;;;;23.08;14.60;;;;;;;0.35;83.33;100332.00;5003734;28;20076;-72
2021/01/26 02:37:00;;;;;;;26.65;14.73;;;;;;;0.32;83.67;100334.81;5002668;28;20030;-73
2021/01/26 02:39:33;;;;;;;27.50;14.77;;;;;;;0.38;82.88;100333.59;5005922;28;20050;-72
2021/01/26 02:42:07;;;;;;;23.92;14.30;;;;;;;0.33;83.28;100333.84;5010549;28;20459;-72
2021/01/26 02:44:45;;;;;;;26.48;14.70;;;;;;;0.26;83.85;100336.91;4994253;28;20038;-72
2021/01/26 02:47:33;;;;;;;24.17;15.15;;;;;;;0.29;83.48;100339.38;4998351;28;20505;-72
2021/01/26 02:50:08;;;;;;;25.88;14.88;;;;;;;0.28;84.12;100340.28;4995653;28;20039;-72
2021/01/26 02:52:51;;;;;;;28.42;15.57;;;;;;;0.33;83.24;100341.66;4992077;28;20039;-73
2021/01/26 02:55:58;;;;;;;26.50;15.00;;;;;;;0.33;83.49;100353.84;4990241;28;20041;-73
2021/01/26 02:59:00;;;;;;;26.33;14.45;;;;;;;0.25;83.99;100345.66;4968836;28;20033;-73
2021/01/26 03:01:33;;;;;;;24.45;14.10;;;;;;;0.27;83.75;100354.22;5004259;28;20065;-72
2021/01/26 03:04:04;;;;;;;29.67;16.40;;;;;;;0.29;83.70;100348.00;4996421;28;20034;-73
2021/01/26 03:06:33;;;;;;;28.58;16.73;;;;;;;0.36;83.61;100345.88;4999554;28;20387;-73
2021/01/26 03:09:10;;;;;;;27.38;16.27;;;;;;;0.33;83.76;100346.88;5000231;28;20044;-72
2021/01/26 03:11:44;;;;;;;28.58;16.33;;;;;;;0.31;84.31;100356.53;4994175;28;20042;-73
2021/01/26 03:14:22;;;;;;;28.30;16.92;;;;;;;0.30;84.02;100367.03;4990727;28;20097;-73
2021/01/26 03:16:53;;;;;;;26.90;15.23;;;;;;;0.20;84.92;100356.34;4997076;28;20279;-72
2021/01/26 03:19:23;;;;;;;23.38;13.88;;;;;;;0.16;84.85;100371.25;4993899;28;20026;-73
2021/01/26 03:21:54;;;;;;;26.83;15.48;;;;;;;0.22;84.69;100359.69;4995958;28;20062;-72
2021/01/26 03:24:23;;;;;;;;;;;;;;;0.31;84.37;100364.34;5001162;28;20815;-72
2021/01/26 03:26:50;;;;;;;29.63;16.45;;;;;;;0.34;83.89;100361.56;5006787;28;19927;-72
2021/01/26 03:29:21;;;;;;;28.35;16.00;;;;;;;0.28;84.05;100355.88;4996048;28;20487;-72
2021/01/26 03:31:52;;;;;;;28.48;16.27;;;;;;;0.27;84.35;100355.03;4995618;28;20035;-72
2021/01/26 03:34:18;;;;;;;27.23;15.73;;;;;;;0.30;84.39;100354.03;4990257;28;20512;-73
2021/01/26 03:36:43;;;;;;;27.75;16.48;;;;;;;0.31;84.24;100353.94;4995283;28;20049;-72
2021/01/26 03:39:09;;;;;;;27.25;16.17;;;;;;;0.28;84.37;100346.31;4990989;28;20034;-72
2021/01/26 03:41:35;;;;;;;28.95;16.58;;;;;;;0.34;83.89;100348.56;4992837;28;20105;-73
2021/01/26 03:44:01;;;;;;;27.67;15.00;;;;;;;0.27;84.33;100357.66;4990547;28;20030;-75
2021/01/26 03:46:48;;;;;;;23.13;13.93;;;;;;;0.18;85.02;100348.59;4992737;28;20076;-72
2021/01/26 03:49:31;;;;;;;25.73;14.05;;;;;;;0.15;85.35;100360.97;4997481;28;20030;-73
2021/01/26 03:52:14;;;;;;;25.50;15.18;;;;;;;0.31;84.40;100360.88;4994284;28;20038;-73
2021/01/26 03:54:45;;;;;;;27.67;15.70;;;;;;;0.31;84.35;100369.56;4991747;28;20069;-73
2021/01/26 03:57:48;;;;;;;30.00;17.83;;;;;;;0.40;84.19;100365.56;4991270;28;20404;-72
2021/01/26 04:00:19;;;;;;;27.17;15.82;;;;;;;0.33;84.23;100369.44;4998679;28;20231;-72
2021/01/26 04:02:53;;;;;;;;;;;;;;;0.38;84.28;100380.41;4997246;28;20038;-73
2021/01/26 04:05:27;;;;;;;27.02;14.57;;;;;;;0.35;84.43;100370.19;4998515;28;19983;-72
2021/01/26 04:08:01;;;;;;;29.10;15.77;;;;;;;0.33;84.51;100365.06;4996406;28;20038;-73
2021/01/26 04:10:33;;;;;;;24.27;14.70;;;;;;;0.25;85.17;100374.28;4985099;28;20045;-73
2021/01/26 04:13:02;;;;;;;25.75;14.85;;;;;;;0.28;84.93;100371.47;4988213;28;20395;-73
2021/01/26 04:15:42;;;;;;;27.77;16.70;;;;;;;0.38;84.63;100370.88;4985716;28;20038;-73
2021/01/26 04:18:11;;;;;;;26.07;14.60;;;;;;;0.36;84.56;100371.88;4977309;28;20030;-73
2021/01/26 04:20:37;;;;;;;28.73;15.70;;;;;;;0.39;84.55;100377.72;4979898;28;20030;-73
2021/01/26 04:23:04;;;;;;;27.13;15.52;;;;;;;0.45;84.03;100386.09;4973224;28;20049;-73
2021/01/26 04:25:32;;;;;;;27.35;14.98;;;;;;;0.39;84.49;100374.28;4971119;28;20038;-73
2021/01/26 04:27:59;;;;;;;25.48;14.32;;;;;;;0.42;84.37;100387.13;4975295;28;20042;-73
2021/01/26 04:30:25;;;;;;;28.05;15.68;;;;;;;0.53;84.05;100386.50;4979168;28;20042;-73
2021/01/26 04:33:05;;;;;;;27.00;14.93;;;;;;;0.53;83.84;100384.72;4975975;28;20067;-72
2021/01/26 04:35:31;;;;;;;26.48;14.30;;;;;;;0.50;83.93;100381.44;4971652;28;20105;-73
2021/01/26 04:37:56;;;;;;;25.48;15.05;;;;;;;0.62;83.24;100383.31;4974093;28;20511;-72
2021/01/26 04:40:23;;;;;;;24.85;14.15;;;;;;;0.55;83.55;100376.81;4983430;28;20034;-72
2021/01/26 04:42:55;;;;;;;25.42;14.50;;;;;;;0.57;83.46;100381.00;4978714;28;20093;-73
2021/01/26 04:45:36;;;;;;;27.40;13.60;;;;;;;0.74;83.32;100387.81;4980087;28;20041;-72
2021/01/26 04:48:17;;;;;;;28.27;13.90;;;;;;;0.54;83.94;100388.16;4975017;28;20045;-73
2021/01/26 04:51:17;;;;;;;23.92;12.68;;;;;;;0.56;83.83;100383.69;4978328;28;20039;-72
2021/01/26 04:54:03;;;;;;;21.05;12.65;;;;;;;0.55;83.81;100387.22;4973971;28;20045;-73
2021/01/26 04:56:33;;;;;;;21.92;11.55;;;;;;;0.52;83.94;100388.22;4975130;28;20037;-72
2021/01/26 04:59:02;;;;;;;21.88;12.10;;;;;;;0.61;83.70;100382.47;4973972;28;20042;-73
2021/01/26 05:01:54;;;;;;;19.38;11.38;;;;;;;0.54;83.88;100385.56;4981200;28;20034;-73
2021/01/26 05:04:24;;;;;;;24.63;11.98;;;;;;;0.67;83.33;100386.50;4972333;28;20053;-73
2021/01/26 05:07:01;;;;;;;21.95;11.95;;;;;;;0.61;83.55;100376.44;4983780;28;20041;-72
2021/01/26 05:09:31;;;;;;;19.83;11.20;;;;;;;0.64;83.39;100381.47;4982159;28;20491;-72
2021/01/26 05:12:01;;;;;;;21.75;11.23;;;;;;;0.62;83.45;100383.31;4979179;28;20439;-73
2021/01/26 05:14:34;;;;;;;21.70;11.38;;;;;;;0.59;83.62;100384.34;4974086;28;20027;-73
2021/01/26 05:17:08;;;;;;;19.63;11.63;;;;;;;0.68;83.70;100384.72;4984383;28;20049;-73
2021/01/26 05:19:52;;;;;;;20.90;11.00;;;;;;;0.65;83.59;100390.13;4974743;28;20496;-73
2021/01/26 05:22:27;;;;;;;21.58;10.27;;;;;;;0.73;82.97;100390.50;4977509;28;20047;-72
2021/01/26 05:25:07;;;;;;;20.85;10.63;;;;;;;0.77;83.00;100394.59;4972394;28;20035;-73
2021/01/26 05:27:32;;;;;;;19.35;10.32;;;;;;;0.67;83.22;100389.09;4982493;28;20031;-73
2021/01/26 05:29:59;;;;;;;19.55;10.27;;;;;;;0.77;83.16;100386.78;4973691;28;20046;-73
2021/01/26 05:32:25;;;;;;;18.38;10.82;;;;;;;0.80;82.87;100391.81;4977414;28;20532;-72
2021/01/26 05:34:52;;;;;;;19.67;10.95;;;;;;;0.74;83.13;100390.41;4983634;28;20054;-73
2021/01/26 05:37:19;;;;;;;17.35;9.88;;;;;;;0.68;83.23;100388.16;4982843;28;20042;-72
2021/01/26 05:40:05;;;;;;;20.48;10.40;;;;;;;0.74;83.03;100398.22;4978366;28;20523;-72
2021/01/26 05:42:33;;;;;;;18.98;10.55;;;;;;;0.81;82.81;100406.47;4973603;28;20054;-73
2021/01/26 05:45:04;;;;;;;18.38;10.20;;;;;;;0.80;82.64;100412.63;4973951;28;20027;-72
2021/01/26 05:47:30;;;;;;;;;;;;;;;0.92;82.28;100411.03;4978476;28;20034;-72
2021/01/26 05:49:56;;;;;;;19.70;10.27;;;;;;;0.88;82.35;100410.38;4973578;28;20022;-73
2021/01/26 05:52:34;;;;;;;15.18;8.57;;;;;;;0.89;82.23;100411.25;4980958;28;20129;-72
2021/01/26 05:55:01;;;;;;;18.25;9.98;;;;;;;0.95;81.81;100422.09;4972850;28;20152;-72
2021/01/26 05:57:31;;;;;;;15.85;9.10;;;;;;;0.91;82.31;100427.59;4981947;28;20080;-73
2021/01/26 06:00:13;;;;;;;15.63;9.82;;;;;;;0.91;82.68;100433.66;4983685;28;20030;-73
2021/01/26 06:02:38;;;;;;;17.90;9.90;;;;;;;0.85;82.70;100437.44;4975132;28;20031;-73
2021/01/26 06:05:10;;;;;;;16.02;10.18;;;;;;;0.89;82.74;100438.09;4976571;28;20377;-72
2021/01/26 06:07:37;;;;;;;16.33;9.70;;;;;;;0.84;83.08;100440.97;4967440;28;20122;-73
2021/01/26 06:10:16;;;;;;;16.35;8.30;;;;;;;0.84;83.13;100442.75;4980271;28;20063;-73
2021/01/26 06:12:55;;;;;;;15.77;9.23;;;;;;;0.99;82.46;100444.41;4973146;28;20046;-73
2021/01/26 06:15:27;;;;;;;15.25;8.38;;;;;;;0.89;82.63;100445.09;4973755;28;20046;-73
2021/01/26 06:18:14;;;;;;;19.55;9.85;;;;;;;1.00;82.54;100446.13;4978518;28;20026;-73
2021/01/26 06:20:41;;;;;;;18.52;9.27;;;;;;;0.98;82.44;100440.16;4965839;28;20027;-73
2021/01/26 06:23:19;;;;;;;14.95;8.07;;;;;;;0.89;82.92;100442.47;4982008;28;20035;-73
2021/01/26 06:25:52;;;;;;;19.20;9.57;;;;;;;0.93;82.94;100441.34;4973170;28;20042;-72
2021/01/26 06:28:37;;;;;;;21.38;10.30;;;;;;;1.03;82.05;100440.72;4980069;28;20030;-72
2021/01/26 06:31:16;;;;;;;17.20;8.80;;;;;;;1.00;82.06;100450.47;4972936;28;20043;-72
2021/01/26 06:34:19;;;;;;;17.15;9.15;;;;;;;0.98;82.28;100453.19;4980930;28;20039;-72
2021/01/26 06:37:06;;;;;;;18.45;9.68;;;;;;;1.05;82.25;100453.66;4935282;29;20042;-73
2021/01/26 06:39:44;;;;;;;14.88;8.63;;;;;;;1.03;82.28;100458.09;4977626;28;20059;-72
2021/01/26 06:42:41;;;;;;;18.83;9.13;;;;;;;1.09;81.97;100446.47;4972305;28;20042;-73
2021/01/26 06:45:36;;;;;;;13.43;7.00;;;;;;;0.97;82.57;100456.69;4972506;28;20448;-73
2021/01/26 06:48:30;;;;;;;15.13;7.32;;;;;;;1.10;82.08;100454.22;4970118;28;20523;-73
2021/01/26 06:51:30;;;;;;;15.23;7.18;;;;;;;1.26;80.77;100446.28;4979794;28;20039;-72
2021/01/26 06:54:34;;;;;;;11.93;6.10;;;;;;;1.15;81.61;100451.31;4979987;28;20038;-73
2021/01/26 06:57:15;;;;;;;10.38;5.47;;;;;;;1.23;81.18;100468.13;4984739;28;20118;-73
2021/01/26 06:59:54;;;;;;;11.02;5.50;;;;;;;1.31;80.56;100470.31;4973784;28;20441;-72
2021/01/26 07:02:38;;;;;;;9.93;5.40;;;;;;;1.34;80.60;100479.69;4979703;28;20462;-72
2021/01/26 07:05:06;;;;;;;10.18;5.88;;;;;;;1.39;79.83;100478.47;4986280;28;20084;-72
2021/01/26 07:07:53;;;;;;;10.57;5.10;;;;;;;1.41;79.77;100479.22;4992113;28;20491;-72
2021/01/26 07:10:30;;;;;;;11.27;5.93;;;;;;;1.41;80.03;100478.38;4991279;28;20043;-72
2021/01/26 07:12:58;;;;;;;9.32;4.70;;;;;;;1.36;80.16;100483.88;4995004;28;20037;-72
2021/01/26 07:15:33;;;;;;;11.70;5.80;;;;;;;1.46;79.94;100491.97;4992713;28;20041;-72
2021/01/26 07:18:28;;;;;;;9.43;5.32;;;;;;;1.49;79.29;100491.75;4987813;28;20123;-72
2021/01/26 07:21:09;;;;;;;9.30;4.43;;;;;;;1.49;79.70;100491.75;4990776;28;20038;-72
2021/01/26 07:23:43;;;;;;;10.80;5.03;;;;;;;1.52;79.49;100491.56;4990742;28;20034;-72
2021/01/26 07:26:41;;;;;;;13.38;5.60;;;;;;;1.59;78.58;100482.44;4990821;28;20381;-72
2021/01/26 07:29:28;;;;;;;10.77;5.25;;;;;;;1.58;78.43;100490.38;4991223;28;20403;-72
2021/01/26 07:32:03;;;;;;;9.65;5.38;;;;;;;1.63;78.74;100488.31;4992581;28;20042;-72
2021/01/26 07:34:58;;;;;;;9.65;5.20;;;;;;;1.69;77.81;100491.38;4997416;28;20061;-72
2021/01/26 07:38:02;;;;;;;8.18;4.57;;;;;;;1.68;78.12;100486.25;4980869;28;20044;-72
2021/01/26 07:40:49;;;;;;;10.45;5.40;;;;;;;1.79;77.15;100491.63;4991572;28;20034;-72
2021/01/26 07:43:26;;;;;;;9.82;4.57;;;;;;;1.83;76.71;100494.88;4987810;28;20412;-72
2021/01/26 07:45:51;;;;;;;10.00;4.60;;;;;;;1.78;77.05;100499.53;4990931;28;20030;-72
2021/01/26 07:49:21;;;;;;;6.00;3.90;;;;;;;1.67;78.27;100508.88;4990735;28;20093;-72
2021/01/26 07:51:54;;;;;;;8.45;3.67;;;;;;;1.64;78.68;100519.47;4930617;28;20043;-72
2021/01/26 07:54:38;;;;;;;6.57;3.55;;;;;;;1.70;78.79;100520.88;4991633;28;20054;-72
2021/01/26 07:57:04;;;;;;;8.27;3.42;;;;;;;1.72;78.04;100521.63;5007751;28;20038;-72
2021/01/26 07:59:34;;;;;;;10.02;3.60;;;;;;;1.80;77.96;100534.19;4997852;28;20121;-72
2021/01/26 08:02:05;;;;;;;6.67;3.33;;;;;;;1.78;77.09;100526.44;5001400;28;20041;-72
2021/01/26 08:04:39;;;;;;;10.15;3.90;;;;;;;1.85;76.75;100527.75;4985729;28;20053;-72
2021/01/26 08:07:05;;;;;;;7.28;4.13;;;;;;;1.92;77.03;100529.03;4975366;28;20075;-72
2021/01/26 08:09:42;;;;;;;6.25;3.28;;;;;;;1.80;77.57;100535.00;4972772;28;20049;-71
2021/01/26 08:12:12;;;;;;;5.00;3.15;;;;;;;1.74;78.82;100547.59;4972235;28;20482;-72
2021/01/26 08:15:03;;;;;;;5.85;3.42;;;;;;;1.84;77.63;100549.53;4974712;28;20045;-72
2021/01/26 08:17:31;;;;;;;;;;;;;;;1.90;77.17;100554.34;4976342;28;20045;-72
2021/01/26 08:20:08;;;;;;;6.20;3.22;;;;;;;1.85;77.45;100547.75;4979104;28;19960;-72
2021/01/26 08:22:36;;;;;;;8.35;3.40;;;;;;;1.88;77.24;100558.84;4978880;28;20057;-72
2021/01/26 08:25:23;;;;;;;6.55;3.72;;;;;;;1.98;76.84;100558.25;4978065;28;20498;-72
2021/01/26 08:27:50;;;;;;;6.68;3.10;;;;;;;1.86;77.63;100573.75;4975665;28;20089;-72
2021/01/26 08:30:35;;;;;;;8.85;4.30;;;;;;;1.84;78.23;100570.41;4977930;28;20053;-72
2021/01/26 08:33:07;;;;;;;5.65;3.30;;;;;;;1.98;77.47;100576.50;4965082;28;20483;-72
2021/01/26 08:35:33;;;;;;;8.75;4.07;;;;;;;2.00;77.35;100575.50;4977821;28;20062;-72
2021/01/26 08:37:59;;;;;;;6.13;3.20;;;;;;;2.00;77.21;100585.94;4975827;28;20122;-72
2021/01/26 08:40:27;;;;;;;7.03;3.40;;;;;;;2.07;77.22;100584.63;4979068;28;20046;-72
2021/01/26 08:42:59;;;;;;;7.65;3.08;;;;;;;2.07;77.07;100584.63;4979034;28;20052;-71
2021/01/26 08:45:25;;;;;;;8.88;3.90;;;;;;;2.12;76.67;100587.78;4979303;28;20038;-72
2021/01/26 08:47:52;;;;;;;6.93;2.90;;;;;;;2.18;75.93;100586.53;4978975;28;20681;-72
2021/01/26 08:50:36;;;;;;;8.23;3.75;;;;;;;2.27;75.67;100582.53;4979513;28;20298;-72
2021/01/26 08:53:28;;;;;;;6.05;3.58;;;;;;;2.26;75.85;100586.06;4977063;28;20156;-72
2021/01/26 08:56:22;;;;;;;;;;;;;;;2.18;76.29;100591.75;4978466;28;20069;-72
2021/01/26 08:58:53;;;;;;;6.13;3.10;;;;;;;2.26;75.78;100591.28;4979989;28;20095;-72
2021/01/26 09:01:25;;;;;;;5.78;3.50;;;;;;;2.18;75.67;100594.38;4979393;28;20042;-72
2021/01/26 09:04:14;;;;;;;8.20;3.35;;;;;;;2.23;75.47;100594.91;4978789;28;20454;-72
2021/01/26 09:06:39;;;;;;;6.22;3.60;;;;;;;2.32;74.72;100593.50;4978883;28;20048;-72
2021/01/26 09:09:20;;;;;;;5.73;3.03;;;;;;;2.39;74.69;100594.78;4979218;28;20038;-72
2021/01/26 09:11:45;;;;;;;;;;;;;;;2.38;74.45;100600.09;4975488;28;20721;-72
2021/01/26 09:14:44;;;;;;;8.00;3.30;;;;;;;2.28;75.42;100600.69;4976729;28;19983;-72
2021/01/26 09:17:30;;;;;;;7.70;2.92;;;;;;;2.16;75.23;100609.28;4979052;28;20080;-72
2021/01/26 09:20:09;;;;;;;6.50;3.00;;;;;;;2.28;75.15;100611.13;4977533;28;20042;-72
2021/01/26 09:22:35;;;;;;;4.90;2.80;;;;;;;2.36;74.43;100620.22;4978892;28;20035;-72
2021/01/26 09:25:07;;;;;;;5.30;2.25;;;;;;;2.18;76.41;100623.06;4978570;28;20034;-72
2021/01/26 09:27:34;;;;;;;8.90;2.50;;;;;;;2.19;75.81;100631.72;4978517;28;20054;-72
2021/01/26 09:30:06;;;;;;;5.88;2.78;;;;;;;2.19;75.54;100629.94;4978644;28;20058;-72
2021/01/26 09:32:32;;;;;;;5.15;2.63;;;;;;;2.29;74.31;100625.03;4977019;28;20052;-72
2021/01/26 09:35:21;;;;;;;4.43;2.67;;;;;;;2.43;73.46;100635.44;4980129;28;20097;-72
2021/01/26 09:37:47;;;;;;;7.82;2.90;;;;;;;2.52;74.68;100636.59;4978388;28;20049;-72
2021/01/26 09:40:13;;;;;;;7.20;2.88;;;;;;;2.59;74.03;100632.66;4976008;28;20061;-72
2021/01/26 09:42:39;;;;;;;5.90;2.78;;;;;;;2.60;74.05;100634.34;4979222;28;20042;-72
2021/01/26 09:45:08;;;;;;;4.80;2.30;;;;;;;2.55;73.24;100639.88;4979034;28;20039;-72
2021/01/26 09:47:34;;;;;;;7.32;2.72;;;;;;;2.64;73.15;100637.59;4980714;28;20403;-72
2021/01/26 09:50:03;;;;;;;6.70;2.63;;;;;;;2.70;72.23;100645.06;4979484;28;20503;-72
2021/01/26 09:52:30;;;;;;;6.05;2.83;;;;;;;2.71;71.78;100650.16;4980988;28;20715;-72
2021/01/26 09:55:11;;;;;;;5.20;2.55;;;;;;;2.68;72.71;100650.34;4982074;28;20034;-72
2021/01/26 09:57:38;;;;;;;7.95;2.65;;;;;;;2.65;73.02;100660.19;4980159;28;20100;-71
2021/01/26 10:00:15;;;;;;;5.68;2.40;;;;;;;2.73;72.22;100650.91;4981442;28;20387;-72
2021/01/26 10:02:42;;;;;;;6.63;2.47;;;;;;;2.67;74.14;100650.44;4980052;28;20042;-72
2021/01/26 10:05:11;;;;;;;8.00;2.58;;;;;;;2.71;72.50;100652.75;4979754;28;20053;-72
2021/01/26 10:07:36;;;;;;;7.10;2.60;;;;;;;2.76;72.75;100662.91;4980882;28;20058;-71
2021/01/26 10:10:22;;;;;;;8.82;3.00;;;;;;;2.83;72.00;100663.38;4997155;28;20062;-73
2021/01/26 10:12:48;;;;;;;5.88;2.08;;;;;;;2.74;72.36;100668.25;4993766;28;20026;-72
2021/01/26 10:15:24;;;;;;;6.55;2.28;;;;;;;2.75;72.99;100674.31;4993550;28;20520;-72
2021/01/26 10:18:04;;;;;;;7.18;2.50;;;;;;;2.78;73.87;100675.88;4994025;28;20026;-72
2021/01/26 10:20:38;;;;;;;6.43;2.80;;;;;;;2.91;72.41;100680.22;4993161;28;20507;-72
2021/01/26 10:23:13;;;;;;;8.15;2.47;;;;;;;2.91;71.53;100682.00;4992953;28;20134;-72
2021/01/26 10:25:41;;;;;;;6.43;2.35;;;;;;;2.90;72.54;100688.16;4996478;28;20104;-72
2021/01/26 10:28:19;;;;;;;8.63;2.70;;;;;;;2.96;71.41;100688.59;4993991;28;20045;-72
2021/01/26 10:30:46;;;;;;;4.95;2.78;;;;;;;2.98;71.68;100685.91;4999767;28;20038;-72
2021/01/26 10:33:31;;;;;;;5.93;2.42;;;;;;;2.94;71.92;100685.25;5005811;28;20030;-72
2021/01/26 10:36:16;;;;;;;6.82;2.50;;;;;;;2.88;73.31;100693.47;5000558;28;20031;-72
2021/01/26 10:38:43;;;;;;;8.25;2.88;;;;;;;2.99;71.95;100703.25;4995861;28;20507;-71
2021/01/26 10:41:34;;;;;;;5.95;2.58;;;;;;;2.96;71.55;100700.84;4992142;28;20518;-72
2021/01/26 10:44:09;;;;;;;11.43;2.63;;;;;;;3.02;71.03;100692.59;4990417;28;20530;-71
2021/01/26 10:46:45;;;;;;;7.60;2.47;;;;;;;2.98;70.71;100689.34;4992792;28;20042;-72
2021/01/26 10:49:24;;;;;;;5.35;2.58;;;;;;;2.98;70.83;100693.75;4991415;28;20035;-72
2021/01/26 10:51:49;;;;;;;5.88;2.53;;;;;;;3.00;72.02;100684.00;4991588;28;20515;-71
2021/01/26 10:54:14;;;;;;;5.60;2.45;;;;;;;3.03;72.15;100696.88;4996232;28;20037;-72
2021/01/26 10:56:43;;;;;;;6.40;2.25;;;;;;;3.16;72.03;100699.53;4996385;28;20031;-72
2021/01/26 10:59:08;;;;;;;7.35;2.42;;;;;;;3.17;71.29;100693.34;4990408;28;20380;-72
2021/01/26 11:01:36;;;;;;;8.30;2.58;;;;;;;3.13;72.82;100697.97;4991216;28;20362;-72
2021/01/26 11:04:02;;;;;;;8.57;3.40;;;;;;;3.14;71.51;100696.19;4990581;28;20041;-73
2021/01/26 11:06:27;;;;;;;9.77;3.33;;;;;;;3.19;70.67;100694.97;4995740;28;20038;-72
2021/01/26 11:08:53;;;;;;;5.95;2.22;;;;;;;3.10;70.99;100690.31;4995038;28;20041;-72
2021/01/26 11:11:22;;;;;;;6.30;2.58;;;;;;;3.10;71.19;100695.56;4993724;28;20046;-72
2021/01/26 11:13:49;;;;;;;5.57;2.17;;;;;;;3.04;71.46;100695.09;5001199;28;20063;-72
2021/01/26 11:16:14;;;;;;;7.10;2.20;;;;;;;2.99;71.60;100698.00;4989386;28;20117;-72
2021/01/26 11:18:41;;;;;;;7.22;3.00;;;;;;;3.07;71.31;100693.13;4991649;28;20117;-72
2021/01/26 11:21:06;;;;;;;9.90;4.38;;;;;;;3.18;71.14;100693.25;4992430;28;20399;-72
2021/01/26 11:23:32;;;;;;;8.45;3.17;;;;;;;3.22;70.14;100698.28;4993175;28;20162;-72
2021/01/26 11:25:57;;;;;;;8.13;3.40;;;;;;;3.34;69.39;100689.66;5002173;28;20033;-72
2021/01/26 11:28:23;;;;;;;4.90;2.70;;;;;;;3.23;70.33;100694.75;4992219;28;20451;-71
2021/01/26 11:30:48;;;;;;;7.03;2.67;;;;;;;3.21;70.75;100694.84;4996702;28;20042;-72
2021/01/26 11:33:14;;;;;;;5.38;2.30;;;;;;;3.39;71.04;100700.66;4992509;28;20494;-72
2021/01/26 11:35:39;;;;;;;4.47;2.42;;;;;;;3.57;71.32;100690.72;4996386;28;20040;-71
2021/01/26 11:38:05;;;;;;;5.50;2.50;;;;;;;3.67;70.00;100685.72;4998191;28;20396;-72
2021/01/26 11:40:30;;;;;;;6.72;2.33;;;;;;;3.76;68.68;100695.56;4990576;28;20038;-71
2021/01/26 11:42:56;;;;;;;5.20;2.30;;;;;;;3.69;70.09;100691.69;4990410;28;20065;-72
2021/01/26 11:45:27;;;;;;;5.88;2.47;;;;;;;3.83;69.08;100692.41;4991374;28;20034;-72
2021/01/26 11:47:52;;;;;;;4.53;2.22;;;;;;;3.99;68.80;100694.84;4997360;28;20084;-72
2021/01/26 11:50:19;;;;;;;4.07;2.03;;;;;;;4.08;69.13;100698.59;4989643;28;20117;-72
2021/01/26 11:52:45;;;;;;;4.75;2.47;;;;;;;4.13;68.51;100698.28;4993048;28;20033;-72
2021/01/26 11:55:15;;;;;;;4.78;2.13;;;;;;;4.07;68.45;100701.31;4994055;28;20064;-72
2021/01/26 11:57:41;;;;;;;4.13;1.88;;;;;;;4.02;68.93;100704.25;4998505;28;20034;-72
2021/01/26 12:00:09;;;;;;;5.05;2.30;;;;;;;4.03;69.95;100708.56;4996360;28;20037;-73
2021/01/26 12:02:34;;;;;;;4.35;2.00;;;;;;;4.10;68.62;100704.56;4997844;28;20046;-72
2021/01/26 12:05:01;;;;;;;3.75;1.88;;;;;;;4.13;68.73;100712.22;4995346;28;20038;-72
2021/01/26 12:07:26;;;;;;;6.68;2.30;;;;;;;4.18;66.79;100706.66;5000916;28;20041;-71
2021/01/26 12:09:51;;;;;;;5.53;2.38;;;;;;;4.18;66.74;100712.72;4999588;28;20062;-72